sensor_id;sensor_type;location;lat;lon;timestamp;P1;durP1;ratioP1;P2;durP2;ratioP2
75739;SDS011;64357;51.344;6.550;2022-12-20T00:01:16;4.20;;;1.73;;
75739;SDS011;64357;51.344;6.550;2022-12-20T00:03:44;6.72;;;2.00;;
75739;SDS011;64357;51.344;6.550;2022-12-20T00:06:12;2.88;;;1.17;;
75739;SDS011;64357;51.344;6.550;2022-12-20T00:08:38;4.88;;;1.40;;
75739;SDS011;64357;51.344;6.550;2022-12-20T00:11:05;5.90;;;1.90;;
75739;SDS011;64357;51.344;6.550;2022-12-20T00:13:34;4.47;;;1.20;;
75739;SDS011;64357;51.344;6.550;2022-12-20T00:18:38;4.28;;;1.30;;
75739;SDS011;64357;51.344;6.550;2022-12-20T00:21:05;6.18;;;1.92;;
75739;SDS011;64357;51.344;6.550;2022-12-20T00:23:34;3.88;;;1.33;;
75739;SDS011;64357;51.344;6.550;2022-12-20T00:26:04;4.63;;;1.08;;
75739;SDS011;64357;51.344;6.550;2022-12-20T00:28:33;4.43;;;1.02;;
75739;SDS011;64357;51.344;6.550;2022-12-20T00:31:02;2.35;;;0.93;;
75739;SDS011;64357;51.344;6.550;2022-12-20T00:33:28;2.63;;;1.10;;
75739;SDS011;64357;51.344;6.550;2022-12-20T00:35:56;3.60;;;1.13;;
75739;SDS011;64357;51.344;6.550;2022-12-20T00:38:22;3.63;;;1.10;;
75739;SDS011;64357;51.344;6.550;2022-12-20T00:41:01;4.90;;;1.23;;
75739;SDS011;64357;51.344;6.550;2022-12-20T00:43:29;3.70;;;0.98;;
75739;SDS011;64357;51.344;6.550;2022-12-20T00:45:58;4.65;;;1.45;;
75739;SDS011;64357;51.344;6.550;2022-12-20T00:48:25;8.10;;;1.65;;
75739;SDS011;64357;51.344;6.550;2022-12-20T00:50:51;3.95;;;1.30;;
75739;SDS011;64357;51.344;6.550;2022-12-20T00:53:17;2.83;;;1.00;;
75739;SDS011;64357;51.344;6.550;2022-12-20T00:55:45;7.20;;;1.50;;
75739;SDS011;64357;51.344;6.550;2022-12-20T00:58:11;7.70;;;1.45;;
75739;SDS011;64357;51.344;6.550;2022-12-20T01:00:40;6.00;;;1.50;;
75739;SDS011;64357;51.344;6.550;2022-12-20T01:03:05;5.83;;;1.30;;
75739;SDS011;64357;51.344;6.550;2022-12-20T01:05:34;5.45;;;1.30;;
75739;SDS011;64357;51.344;6.550;2022-12-20T01:07:59;6.63;;;1.07;;
75739;SDS011;64357;51.344;6.550;2022-12-20T01:10:25;3.92;;;1.30;;
75739;SDS011;64357;51.344;6.550;2022-12-20T01:12:51;3.95;;;1.25;;
75739;SDS011;64357;51.344;6.550;2022-12-20T01:15:17;3.08;;;1.00;;
75739;SDS011;64357;51.344;6.550;2022-12-20T01:17:42;5.88;;;1.40;;
75739;SDS011;64357;51.344;6.550;2022-12-20T01:20:10;4.55;;;1.95;;
75739;SDS011;64357;51.344;6.550;2022-12-20T01:22:36;4.55;;;1.30;;
75739;SDS011;64357;51.344;6.550;2022-12-20T01:25:01;3.03;;;1.05;;
75739;SDS011;64357;51.344;6.550;2022-12-20T01:27:27;6.23;;;1.50;;
75739;SDS011;64357;51.344;6.550;2022-12-20T01:29:53;3.17;;;1.02;;
75739;SDS011;64357;51.344;6.550;2022-12-20T01:32:23;2.45;;;1.08;;
75739;SDS011;64357;51.344;6.550;2022-12-20T01:34:49;2.08;;;0.90;;
75739;SDS011;64357;51.344;6.550;2022-12-20T01:37:16;4.07;;;1.10;;
75739;SDS011;64357;51.344;6.550;2022-12-20T01:39:41;3.20;;;1.00;;
75739;SDS011;64357;51.344;6.550;2022-12-20T01:42:14;6.35;;;1.33;;
75739;SDS011;64357;51.344;6.550;2022-12-20T01:47:05;5.23;;;0.80;;
75739;SDS011;64357;51.344;6.550;2022-12-20T01:49:39;3.30;;;1.20;;
75739;SDS011;64357;51.344;6.550;2022-12-20T01:52:14;2.55;;;1.00;;
75739;SDS011;64357;51.344;6.550;2022-12-20T01:54:49;3.17;;;0.90;;
75739;SDS011;64357;51.344;6.550;2022-12-20T01:57:39;3.58;;;0.70;;
75739;SDS011;64357;51.344;6.550;2022-12-20T02:00:06;2.38;;;1.02;;
75739;SDS011;64357;51.344;6.550;2022-12-20T02:02:37;4.63;;;1.15;;
75739;SDS011;64357;51.344;6.550;2022-12-20T02:05:06;5.88;;;1.98;;
75739;SDS011;64357;51.344;6.550;2022-12-20T02:07:32;5.60;;;1.30;;
75739;SDS011;64357;51.344;6.550;2022-12-20T02:10:02;4.20;;;1.30;;
75739;SDS011;64357;51.344;6.550;2022-12-20T02:12:40;3.92;;;1.48;;
75739;SDS011;64357;51.344;6.550;2022-12-20T02:24:04;4.90;;;1.52;;
75739;SDS011;64357;51.344;6.550;2022-12-20T02:29:53;4.70;;;1.40;;
75739;SDS011;64357;51.344;6.550;2022-12-20T02:32:27;5.07;;;1.35;;
75739;SDS011;64357;51.344;6.550;2022-12-20T02:34:58;2.53;;;1.10;;
75739;SDS011;64357;51.344;6.550;2022-12-20T02:37:24;6.47;;;1.30;;
75739;SDS011;64357;51.344;6.550;2022-12-20T02:39:51;7.83;;;2.27;;
75739;SDS011;64357;51.344;6.550;2022-12-20T02:42:21;4.70;;;1.50;;
75739;SDS011;64357;51.344;6.550;2022-12-20T02:44:51;5.97;;;1.67;;
75739;SDS011;64357;51.344;6.550;2022-12-20T02:47:43;6.72;;;1.50;;
75739;SDS011;64357;51.344;6.550;2022-12-20T02:50:09;4.82;;;1.40;;
75739;SDS011;64357;51.344;6.550;2022-12-20T02:52:36;4.20;;;1.40;;
75739;SDS011;64357;51.344;6.550;2022-12-20T02:55:03;4.40;;;1.60;;
75739;SDS011;64357;51.344;6.550;2022-12-20T02:57:49;5.18;;;1.40;;
75739;SDS011;64357;51.344;6.550;2022-12-20T03:00:20;4.60;;;1.55;;
75739;SDS011;64357;51.344;6.550;2022-12-20T03:02:49;5.22;;;1.50;;
75739;SDS011;64357;51.344;6.550;2022-12-20T03:05:35;5.68;;;1.42;;
75739;SDS011;64357;51.344;6.550;2022-12-20T03:08:11;5.75;;;1.40;;
75739;SDS011;64357;51.344;6.550;2022-12-20T03:10:38;6.05;;;2.05;;
75739;SDS011;64357;51.344;6.550;2022-12-20T03:13:04;3.65;;;1.25;;
75739;SDS011;64357;51.344;6.550;2022-12-20T03:15:29;3.03;;;1.40;;
75739;SDS011;64357;51.344;6.550;2022-12-20T03:17:54;3.77;;;1.33;;
75739;SDS011;64357;51.344;6.550;2022-12-20T03:20:20;4.13;;;1.70;;
75739;SDS011;64357;51.344;6.550;2022-12-20T03:22:45;5.70;;;1.87;;
75739;SDS011;64357;51.344;6.550;2022-12-20T03:25:10;2.30;;;1.20;;
75739;SDS011;64357;51.344;6.550;2022-12-20T03:27:36;3.37;;;1.50;;
75739;SDS011;64357;51.344;6.550;2022-12-20T03:30:03;4.65;;;1.50;;
75739;SDS011;64357;51.344;6.550;2022-12-20T03:32:29;5.95;;;1.50;;
75739;SDS011;64357;51.344;6.550;2022-12-20T03:34:57;4.78;;;1.50;;
75739;SDS011;64357;51.344;6.550;2022-12-20T03:37:23;4.77;;;1.50;;
75739;SDS011;64357;51.344;6.550;2022-12-20T03:39:48;4.38;;;1.38;;
75739;SDS011;64357;51.344;6.550;2022-12-20T03:42:13;4.50;;;1.27;;
75739;SDS011;64357;51.344;6.550;2022-12-20T03:44:39;3.13;;;1.20;;
75739;SDS011;64357;51.344;6.550;2022-12-20T03:47:04;4.97;;;1.77;;
75739;SDS011;64357;51.344;6.550;2022-12-20T03:49:29;5.70;;;1.30;;
75739;SDS011;64357;51.344;6.550;2022-12-20T03:51:55;5.20;;;1.50;;
75739;SDS011;64357;51.344;6.550;2022-12-20T03:54:20;4.47;;;1.50;;
75739;SDS011;64357;51.344;6.550;2022-12-20T03:56:45;4.40;;;1.80;;
75739;SDS011;64357;51.344;6.550;2022-12-20T03:59:11;8.90;;;2.00;;
75739;SDS011;64357;51.344;6.550;2022-12-20T04:01:36;4.47;;;1.33;;
75739;SDS011;64357;51.344;6.550;2022-12-20T04:04:02;5.53;;;1.98;;
75739;SDS011;64357;51.344;6.550;2022-12-20T04:06:28;5.82;;;2.38;;
75739;SDS011;64357;51.344;6.550;2022-12-20T04:08:54;4.97;;;1.83;;
75739;SDS011;64357;51.344;6.550;2022-12-20T04:11:24;6.85;;;2.20;;
75739;SDS011;64357;51.344;6.550;2022-12-20T04:13:52;4.72;;;2.13;;
75739;SDS011;64357;51.344;6.550;2022-12-20T04:16:24;7.70;;;2.20;;
75739;SDS011;64357;51.344;6.550;2022-12-20T04:18:53;5.28;;;2.10;;
75739;SDS011;64357;51.344;6.550;2022-12-20T04:21:22;6.03;;;1.95;;
75739;SDS011;64357;51.344;6.550;2022-12-20T04:23:49;6.03;;;1.67;;
75739;SDS011;64357;51.344;6.550;2022-12-20T04:26:15;5.55;;;2.40;;
75739;SDS011;64357;51.344;6.550;2022-12-20T04:28:42;7.03;;;2.72;;
75739;SDS011;64357;51.344;6.550;2022-12-20T04:31:08;8.02;;;2.40;;
75739;SDS011;64357;51.344;6.550;2022-12-20T04:33:37;7.40;;;2.70;;
75739;SDS011;64357;51.344;6.550;2022-12-20T04:36:02;7.90;;;2.78;;
75739;SDS011;64357;51.344;6.550;2022-12-20T04:38:28;5.97;;;2.13;;
75739;SDS011;64357;51.344;6.550;2022-12-20T04:40:53;7.20;;;2.50;;
75739;SDS011;64357;51.344;6.550;2022-12-20T04:43:22;6.85;;;2.47;;
75739;SDS011;64357;51.344;6.550;2022-12-20T04:45:48;6.13;;;2.40;;
75739;SDS011;64357;51.344;6.550;2022-12-20T04:48:18;8.32;;;2.67;;
75739;SDS011;64357;51.344;6.550;2022-12-20T04:50:47;9.50;;;2.67;;
75739;SDS011;64357;51.344;6.550;2022-12-20T04:53:13;6.53;;;2.47;;
75739;SDS011;64357;51.344;6.550;2022-12-20T04:55:58;7.07;;;2.70;;
75739;SDS011;64357;51.344;6.550;2022-12-20T04:58:23;8.52;;;2.72;;
75739;SDS011;64357;51.344;6.550;2022-12-20T05:00:51;10.00;;;3.10;;
75739;SDS011;64357;51.344;6.550;2022-12-20T05:03:19;7.33;;;2.17;;
75739;SDS011;64357;51.344;6.550;2022-12-20T05:05:46;7.78;;;3.00;;
75739;SDS011;64357;51.344;6.550;2022-12-20T05:08:11;5.47;;;2.28;;
75739;SDS011;64357;51.344;6.550;2022-12-20T05:10:37;6.85;;;2.53;;
75739;SDS011;64357;51.344;6.550;2022-12-20T05:13:02;7.47;;;2.50;;
75739;SDS011;64357;51.344;6.550;2022-12-20T05:15:28;8.27;;;2.97;;
75739;SDS011;64357;51.344;6.550;2022-12-20T05:17:56;6.38;;;2.40;;
75739;SDS011;64357;51.344;6.550;2022-12-20T05:20:27;7.82;;;2.90;;
75739;SDS011;64357;51.344;6.550;2022-12-20T05:22:55;6.80;;;2.10;;
75739;SDS011;64357;51.344;6.550;2022-12-20T05:25:46;8.25;;;3.10;;
75739;SDS011;64357;51.344;6.550;2022-12-20T05:28:28;6.68;;;2.55;;
75739;SDS011;64357;51.344;6.550;2022-12-20T05:30:53;6.75;;;2.83;;
75739;SDS011;64357;51.344;6.550;2022-12-20T05:33:19;8.40;;;2.92;;
75739;SDS011;64357;51.344;6.550;2022-12-20T05:35:44;8.13;;;2.60;;
75739;SDS011;64357;51.344;6.550;2022-12-20T05:38:10;8.15;;;3.08;;
75739;SDS011;64357;51.344;6.550;2022-12-20T05:40:35;7.83;;;2.80;;
75739;SDS011;64357;51.344;6.550;2022-12-20T05:43:01;7.95;;;2.78;;
75739;SDS011;64357;51.344;6.550;2022-12-20T05:45:27;7.07;;;2.60;;
75739;SDS011;64357;51.344;6.550;2022-12-20T05:47:54;7.07;;;2.50;;
75739;SDS011;64357;51.344;6.550;2022-12-20T05:50:19;7.20;;;2.47;;
75739;SDS011;64357;51.344;6.550;2022-12-20T05:52:46;5.75;;;2.33;;
75739;SDS011;64357;51.344;6.550;2022-12-20T05:55:11;4.87;;;1.80;;
75739;SDS011;64357;51.344;6.550;2022-12-20T05:57:37;7.72;;;2.40;;
75739;SDS011;64357;51.344;6.550;2022-12-20T06:00:03;11.38;;;3.33;;
75739;SDS011;64357;51.344;6.550;2022-12-20T06:02:29;6.13;;;2.42;;
75739;SDS011;64357;51.344;6.550;2022-12-20T06:04:54;8.97;;;3.03;;
75739;SDS011;64357;51.344;6.550;2022-12-20T06:07:23;9.27;;;2.10;;
75739;SDS011;64357;51.344;6.550;2022-12-20T06:09:52;7.90;;;2.30;;
75739;SDS011;64357;51.344;6.550;2022-12-20T06:12:21;6.90;;;2.50;;
75739;SDS011;64357;51.344;6.550;2022-12-20T06:14:49;6.45;;;2.50;;
75739;SDS011;64357;51.344;6.550;2022-12-20T06:17:17;7.15;;;2.70;;
75739;SDS011;64357;51.344;6.550;2022-12-20T06:19:45;7.80;;;3.08;;
75739;SDS011;64357;51.344;6.550;2022-12-20T06:22:11;6.63;;;2.60;;
75739;SDS011;64357;51.344;6.550;2022-12-20T06:24:39;7.32;;;2.50;;
75739;SDS011;64357;51.344;6.550;2022-12-20T06:27:04;8.63;;;2.73;;
75739;SDS011;64357;51.344;6.550;2022-12-20T06:29:31;6.38;;;2.60;;
75739;SDS011;64357;51.344;6.550;2022-12-20T06:31:56;7.70;;;2.42;;
75739;SDS011;64357;51.344;6.550;2022-12-20T06:34:22;6.25;;;2.40;;
75739;SDS011;64357;51.344;6.550;2022-12-20T06:36:47;10.80;;;2.93;;
75739;SDS011;64357;51.344;6.550;2022-12-20T06:39:13;7.23;;;2.90;;
75739;SDS011;64357;51.344;6.550;2022-12-20T06:41:40;6.47;;;2.47;;
75739;SDS011;64357;51.344;6.550;2022-12-20T06:44:06;5.17;;;2.17;;
75739;SDS011;64357;51.344;6.550;2022-12-20T06:46:32;6.65;;;2.60;;
75739;SDS011;64357;51.344;6.550;2022-12-20T06:48:57;5.82;;;2.53;;
75739;SDS011;64357;51.344;6.550;2022-12-20T06:51:25;6.05;;;2.20;;
75739;SDS011;64357;51.344;6.550;2022-12-20T06:53:51;8.15;;;2.50;;
75739;SDS011;64357;51.344;6.550;2022-12-20T06:56:16;8.05;;;2.50;;
75739;SDS011;64357;51.344;6.550;2022-12-20T06:58:41;6.20;;;2.20;;
75739;SDS011;64357;51.344;6.550;2022-12-20T07:01:07;6.50;;;2.35;;
75739;SDS011;64357;51.344;6.550;2022-12-20T07:03:32;6.07;;;2.53;;
75739;SDS011;64357;51.344;6.550;2022-12-20T07:05:58;6.00;;;2.35;;
75739;SDS011;64357;51.344;6.550;2022-12-20T07:08:23;6.60;;;2.75;;
75739;SDS011;64357;51.344;6.550;2022-12-20T07:10:49;8.50;;;2.35;;
75739;SDS011;64357;51.344;6.550;2022-12-20T07:13:18;6.53;;;2.03;;
75739;SDS011;64357;51.344;6.550;2022-12-20T07:15:44;5.53;;;2.28;;
75739;SDS011;64357;51.344;6.550;2022-12-20T07:18:09;6.90;;;2.42;;
75739;SDS011;64357;51.344;6.550;2022-12-20T07:20:38;6.38;;;2.75;;
75739;SDS011;64357;51.344;6.550;2022-12-20T07:23:03;5.47;;;2.28;;
75739;SDS011;64357;51.344;6.550;2022-12-20T07:25:28;6.97;;;2.40;;
75739;SDS011;64357;51.344;6.550;2022-12-20T07:27:54;7.72;;;2.58;;
75739;SDS011;64357;51.344;6.550;2022-12-20T07:30:22;8.97;;;2.37;;
75739;SDS011;64357;51.344;6.550;2022-12-20T07:32:47;5.38;;;1.80;;
75739;SDS011;64357;51.344;6.550;2022-12-20T07:35:13;8.03;;;2.77;;
75739;SDS011;64357;51.344;6.550;2022-12-20T07:37:39;5.68;;;1.92;;
75739;SDS011;64357;51.344;6.550;2022-12-20T07:40:04;6.70;;;1.90;;
75739;SDS011;64357;51.344;6.550;2022-12-20T07:42:31;7.32;;;2.53;;
75739;SDS011;64357;51.344;6.550;2022-12-20T07:44:56;6.07;;;2.08;;
75739;SDS011;64357;51.344;6.550;2022-12-20T07:47:23;9.05;;;2.88;;
75739;SDS011;64357;51.344;6.550;2022-12-20T07:49:49;4.33;;;1.93;;
75739;SDS011;64357;51.344;6.550;2022-12-20T07:52:14;6.83;;;2.20;;
75739;SDS011;64357;51.344;6.550;2022-12-20T07:54:42;5.43;;;1.88;;
75739;SDS011;64357;51.344;6.550;2022-12-20T07:57:35;5.15;;;1.95;;
75739;SDS011;64357;51.344;6.550;2022-12-20T08:00:02;6.65;;;1.90;;
75739;SDS011;64357;51.344;6.550;2022-12-20T08:02:35;7.65;;;2.85;;
75739;SDS011;64357;51.344;6.550;2022-12-20T08:05:04;4.53;;;1.92;;
75739;SDS011;64357;51.344;6.550;2022-12-20T08:07:33;7.40;;;2.00;;
75739;SDS011;64357;51.344;6.550;2022-12-20T08:10:05;3.83;;;1.80;;
75739;SDS011;64357;51.344;6.550;2022-12-20T08:12:32;5.20;;;2.05;;
75739;SDS011;64357;51.344;6.550;2022-12-20T08:14:58;5.38;;;2.20;;
75739;SDS011;64357;51.344;6.550;2022-12-20T08:17:23;5.38;;;2.20;;
75739;SDS011;64357;51.344;6.550;2022-12-20T08:19:49;5.80;;;2.10;;
75739;SDS011;64357;51.344;6.550;2022-12-20T08:22:17;6.10;;;1.67;;
75739;SDS011;64357;51.344;6.550;2022-12-20T08:24:43;4.45;;;1.50;;
75739;SDS011;64357;51.344;6.550;2022-12-20T08:27:11;6.88;;;2.22;;
75739;SDS011;64357;51.344;6.550;2022-12-20T08:29:36;5.53;;;1.60;;
75739;SDS011;64357;51.344;6.550;2022-12-20T08:32:02;6.60;;;1.90;;
75739;SDS011;64357;51.344;6.550;2022-12-20T08:34:30;6.80;;;2.65;;
75739;SDS011;64357;51.344;6.550;2022-12-20T08:36:55;6.50;;;2.20;;
75739;SDS011;64357;51.344;6.550;2022-12-20T08:39:20;5.70;;;2.23;;
75739;SDS011;64357;51.344;6.550;2022-12-20T08:41:46;5.57;;;1.70;;
75739;SDS011;64357;51.344;6.550;2022-12-20T08:44:11;4.93;;;2.00;;
75739;SDS011;64357;51.344;6.550;2022-12-20T08:46:37;7.80;;;2.10;;
75739;SDS011;64357;51.344;6.550;2022-12-20T08:49:03;6.20;;;2.00;;
75739;SDS011;64357;51.344;6.550;2022-12-20T08:51:30;4.93;;;2.00;;
75739;SDS011;64357;51.344;6.550;2022-12-20T08:53:56;8.18;;;1.88;;
75739;SDS011;64357;51.344;6.550;2022-12-20T08:56:24;5.13;;;1.98;;
75739;SDS011;64357;51.344;6.550;2022-12-20T08:58:49;5.63;;;2.05;;
75739;SDS011;64357;51.344;6.550;2022-12-20T09:01:16;7.17;;;2.00;;
75739;SDS011;64357;51.344;6.550;2022-12-20T09:03:44;6.10;;;2.03;;
75739;SDS011;64357;51.344;6.550;2022-12-20T09:06:15;6.00;;;1.92;;
75739;SDS011;64357;51.344;6.550;2022-12-20T09:08:41;5.13;;;2.00;;
75739;SDS011;64357;51.344;6.550;2022-12-20T09:11:11;5.22;;;1.83;;
75739;SDS011;64357;51.344;6.550;2022-12-20T09:13:42;4.85;;;1.80;;
75739;SDS011;64357;51.344;6.550;2022-12-20T09:16:12;6.35;;;2.22;;
75739;SDS011;64357;51.344;6.550;2022-12-20T09:18:39;6.25;;;2.13;;
75739;SDS011;64357;51.344;6.550;2022-12-20T09:21:07;7.50;;;2.17;;
75739;SDS011;64357;51.344;6.550;2022-12-20T09:23:34;5.13;;;2.05;;
75739;SDS011;64357;51.344;6.550;2022-12-20T09:26:01;3.92;;;1.58;;
75739;SDS011;64357;51.344;6.550;2022-12-20T09:28:28;5.30;;;1.95;;
75739;SDS011;64357;51.344;6.550;2022-12-20T09:30:58;6.18;;;2.65;;
75739;SDS011;64357;51.344;6.550;2022-12-20T09:33:24;5.28;;;1.75;;
75739;SDS011;64357;51.344;6.550;2022-12-20T09:35:52;4.82;;;1.70;;
75739;SDS011;64357;51.344;6.550;2022-12-20T09:38:20;5.85;;;2.13;;
75739;SDS011;64357;51.344;6.550;2022-12-20T09:40:46;5.95;;;2.00;;
75739;SDS011;64357;51.344;6.550;2022-12-20T09:43:15;6.20;;;2.10;;
75739;SDS011;64357;51.344;6.550;2022-12-20T09:45:41;6.40;;;2.17;;
75739;SDS011;64357;51.344;6.550;2022-12-20T09:48:10;6.68;;;1.83;;
75739;SDS011;64357;51.344;6.550;2022-12-20T09:50:47;4.55;;;2.00;;
75739;SDS011;64357;51.344;6.550;2022-12-20T10:01:27;6.28;;;1.95;;
75739;SDS011;64357;51.344;6.550;2022-12-20T10:03:55;5.38;;;1.70;;
75739;SDS011;64357;51.344;6.550;2022-12-20T10:06:45;6.50;;;1.95;;
75739;SDS011;64357;51.344;6.550;2022-12-20T10:09:29;4.93;;;1.85;;
75739;SDS011;64357;51.344;6.550;2022-12-20T10:23:45;4.53;;;1.83;;
75739;SDS011;64357;51.344;6.550;2022-12-20T10:26:24;4.47;;;2.00;;
75739;SDS011;64357;51.344;6.550;2022-12-20T10:28:50;5.60;;;1.85;;
75739;SDS011;64357;51.344;6.550;2022-12-20T10:31:16;5.33;;;1.73;;
75739;SDS011;64357;51.344;6.550;2022-12-20T10:33:42;4.80;;;1.85;;
75739;SDS011;64357;51.344;6.550;2022-12-20T10:36:18;5.97;;;1.70;;
75739;SDS011;64357;51.344;6.550;2022-12-20T10:38:58;7.65;;;2.00;;
75739;SDS011;64357;51.344;6.550;2022-12-20T10:41:48;7.70;;;1.92;;
75739;SDS011;64357;51.344;6.550;2022-12-20T10:44:23;7.35;;;2.25;;
75739;SDS011;64357;51.344;6.550;2022-12-20T10:46:58;5.18;;;2.20;;
75739;SDS011;64357;51.344;6.550;2022-12-20T10:54:34;4.82;;;1.90;;
75739;SDS011;64357;51.344;6.550;2022-12-20T10:57:21;6.00;;;1.98;;
75739;SDS011;64357;51.344;6.550;2022-12-20T10:59:56;7.82;;;1.80;;
75739;SDS011;64357;51.344;6.550;2022-12-20T11:07:32;5.50;;;1.77;;
75739;SDS011;64357;51.344;6.550;2022-12-20T11:10:02;7.85;;;1.90;;
75739;SDS011;64357;51.344;6.550;2022-12-20T11:12:58;6.20;;;2.05;;
75739;SDS011;64357;51.344;6.550;2022-12-20T11:15:28;5.03;;;1.60;;
75739;SDS011;64357;51.344;6.550;2022-12-20T11:17:55;6.95;;;1.83;;
75739;SDS011;64357;51.344;6.550;2022-12-20T11:23:25;5.45;;;1.63;;
75739;SDS011;64357;51.344;6.550;2022-12-20T11:28:39;5.03;;;1.60;;
75739;SDS011;64357;51.344;6.550;2022-12-20T11:41:58;8.20;;;1.73;;
75739;SDS011;64357;51.344;6.550;2022-12-20T11:49:52;6.45;;;1.73;;
75739;SDS011;64357;51.344;6.550;2022-12-20T11:57:30;4.43;;;1.70;;
75739;SDS011;64357;51.344;6.550;2022-12-20T12:00:10;5.10;;;1.60;;
75739;SDS011;64357;51.344;6.550;2022-12-20T12:02:42;6.18;;;1.77;;
75739;SDS011;64357;51.344;6.550;2022-12-20T12:08:03;5.10;;;1.73;;
75739;SDS011;64357;51.344;6.550;2022-12-20T12:10:36;7.13;;;1.80;;
75739;SDS011;64357;51.344;6.550;2022-12-20T12:16:05;5.28;;;1.85;;
75739;SDS011;64357;51.344;6.550;2022-12-20T12:18:32;6.15;;;1.73;;
75739;SDS011;64357;51.344;6.550;2022-12-20T12:21:05;6.57;;;1.92;;
75739;SDS011;64357;51.344;6.550;2022-12-20T12:26:40;6.47;;;1.67;;
75739;SDS011;64357;51.344;6.550;2022-12-20T12:31:44;4.90;;;1.47;;
75739;SDS011;64357;51.344;6.550;2022-12-20T12:40:40;3.50;;;1.10;;
75739;SDS011;64357;51.344;6.550;2022-12-20T12:45:58;3.63;;;1.30;;
75739;SDS011;64357;51.344;6.550;2022-12-20T12:51:03;5.43;;;1.80;;
75739;SDS011;64357;51.344;6.550;2022-12-20T12:53:36;5.85;;;1.45;;
75739;SDS011;64357;51.344;6.550;2022-12-20T12:59:07;4.07;;;1.70;;
75739;SDS011;64357;51.344;6.550;2022-12-20T13:11:50;3.67;;;1.30;;
75739;SDS011;64357;51.344;6.550;2022-12-20T13:16:46;4.23;;;1.50;;
75739;SDS011;64357;51.344;6.550;2022-12-20T13:21:42;4.07;;;1.60;;
75739;SDS011;64357;51.344;6.550;2022-12-20T13:40:20;4.55;;;1.42;;
75739;SDS011;64357;51.344;6.550;2022-12-20T13:42:50;7.85;;;2.78;;
75739;SDS011;64357;51.344;6.550;2022-12-20T13:45:18;6.85;;;1.25;;
75739;SDS011;64357;51.344;6.550;2022-12-20T13:48:05;5.32;;;1.60;;
75739;SDS011;64357;51.344;6.550;2022-12-20T13:50:41;4.30;;;1.38;;
75739;SDS011;64357;51.344;6.550;2022-12-20T13:53:17;5.45;;;1.70;;
75739;SDS011;64357;51.344;6.550;2022-12-20T13:55:44;4.45;;;1.80;;
75739;SDS011;64357;51.344;6.550;2022-12-20T13:58:15;6.45;;;1.65;;
75739;SDS011;64357;51.344;6.550;2022-12-20T14:00:47;4.97;;;1.70;;
75739;SDS011;64357;51.344;6.550;2022-12-20T14:05:47;6.22;;;1.60;;
75739;SDS011;64357;51.344;6.550;2022-12-20T14:08:20;6.95;;;1.75;;
75739;SDS011;64357;51.344;6.550;2022-12-20T14:10:51;6.25;;;1.80;;
75739;SDS011;64357;51.344;6.550;2022-12-20T14:13:23;4.30;;;1.52;;
75739;SDS011;64357;51.344;6.550;2022-12-20T14:15:50;5.75;;;1.60;;
75739;SDS011;64357;51.344;6.550;2022-12-20T14:18:19;5.88;;;1.90;;
75739;SDS011;64357;51.344;6.550;2022-12-20T14:20:49;9.05;;;3.00;;
75739;SDS011;64357;51.344;6.550;2022-12-20T14:23:21;8.43;;;3.28;;
75739;SDS011;64357;51.344;6.550;2022-12-20T14:25:56;8.40;;;2.25;;
75739;SDS011;64357;51.344;6.550;2022-12-20T14:28:41;6.20;;;1.92;;
75739;SDS011;64357;51.344;6.550;2022-12-20T14:36:35;7.05;;;2.20;;
75739;SDS011;64357;51.344;6.550;2022-12-20T14:39:09;5.65;;;2.08;;
75739;SDS011;64357;51.344;6.550;2022-12-20T14:44:22;7.75;;;1.92;;
75739;SDS011;64357;51.344;6.550;2022-12-20T14:46:49;5.35;;;1.63;;
75739;SDS011;64357;51.344;6.550;2022-12-20T14:51:51;6.40;;;1.50;;
75739;SDS011;64357;51.344;6.550;2022-12-20T14:54:33;6.97;;;2.55;;
75739;SDS011;64357;51.344;6.550;2022-12-20T14:57:09;5.47;;;1.80;;
75739;SDS011;64357;51.344;6.550;2022-12-20T14:59:42;4.75;;;1.77;;
75739;SDS011;64357;51.344;6.550;2022-12-20T15:08:14;5.25;;;2.00;;
75739;SDS011;64357;51.344;6.550;2022-12-20T15:10:54;5.82;;;1.85;;
75739;SDS011;64357;51.344;6.550;2022-12-20T15:18:48;5.57;;;2.05;;
75739;SDS011;64357;51.344;6.550;2022-12-20T15:21:16;6.15;;;2.00;;
75739;SDS011;64357;51.344;6.550;2022-12-20T15:23:48;4.97;;;1.80;;
75739;SDS011;64357;51.344;6.550;2022-12-20T15:26:18;7.13;;;2.50;;
75739;SDS011;64357;51.344;6.550;2022-12-20T15:28:46;4.72;;;1.73;;
75739;SDS011;64357;51.344;6.550;2022-12-20T15:31:13;5.45;;;1.83;;
75739;SDS011;64357;51.344;6.550;2022-12-20T15:33:41;4.38;;;1.60;;
75739;SDS011;64357;51.344;6.550;2022-12-20T15:36:12;6.10;;;1.75;;
75739;SDS011;64357;51.344;6.550;2022-12-20T15:38:41;5.72;;;1.70;;
75739;SDS011;64357;51.344;6.550;2022-12-20T15:41:12;5.07;;;1.60;;
75739;SDS011;64357;51.344;6.550;2022-12-20T15:43:42;7.65;;;2.28;;
75739;SDS011;64357;51.344;6.550;2022-12-20T15:46:09;6.50;;;1.67;;
75739;SDS011;64357;51.344;6.550;2022-12-20T15:48:34;6.05;;;2.45;;
75739;SDS011;64357;51.344;6.550;2022-12-20T15:51:00;5.35;;;1.88;;
75739;SDS011;64357;51.344;6.550;2022-12-20T15:53:34;7.15;;;1.98;;
75739;SDS011;64357;51.344;6.550;2022-12-20T15:55:59;7.88;;;2.50;;
75739;SDS011;64357;51.344;6.550;2022-12-20T15:58:25;6.40;;;2.13;;
75739;SDS011;64357;51.344;6.550;2022-12-20T16:00:54;9.60;;;2.15;;
75739;SDS011;64357;51.344;6.550;2022-12-20T16:03:34;11.77;;;3.45;;
75739;SDS011;64357;51.344;6.550;2022-12-20T16:05:59;6.95;;;2.30;;
75739;SDS011;64357;51.344;6.550;2022-12-20T16:08:27;9.17;;;3.40;;
75739;SDS011;64357;51.344;6.550;2022-12-20T16:10:52;9.60;;;2.25;;
75739;SDS011;64357;51.344;6.550;2022-12-20T16:13:21;9.90;;;2.40;;
75739;SDS011;64357;51.344;6.550;2022-12-20T16:15:48;9.65;;;3.55;;
75739;SDS011;64357;51.344;6.550;2022-12-20T16:18:16;8.32;;;2.63;;
75739;SDS011;64357;51.344;6.550;2022-12-20T16:20:44;8.38;;;2.80;;
75739;SDS011;64357;51.344;6.550;2022-12-20T16:23:17;6.78;;;2.65;;
75739;SDS011;64357;51.344;6.550;2022-12-20T16:25:46;7.30;;;2.88;;
75739;SDS011;64357;51.344;6.550;2022-12-20T16:28:12;9.00;;;3.42;;
75739;SDS011;64357;51.344;6.550;2022-12-20T16:30:37;13.50;;;4.97;;
75739;SDS011;64357;51.344;6.550;2022-12-20T16:33:02;13.07;;;4.40;;
75739;SDS011;64357;51.344;6.550;2022-12-20T16:35:29;13.82;;;4.70;;
75739;SDS011;64357;51.344;6.550;2022-12-20T16:38:00;7.72;;;2.70;;
75739;SDS011;64357;51.344;6.550;2022-12-20T16:40:27;7.35;;;2.83;;
75739;SDS011;64357;51.344;6.550;2022-12-20T16:42:57;8.43;;;3.60;;
75739;SDS011;64357;51.344;6.550;2022-12-20T16:45:24;10.77;;;3.85;;
75739;SDS011;64357;51.344;6.550;2022-12-20T16:47:55;14.32;;;5.32;;
75739;SDS011;64357;51.344;6.550;2022-12-20T16:50:22;9.50;;;3.95;;
75739;SDS011;64357;51.344;6.550;2022-12-20T16:52:51;11.88;;;4.20;;
75739;SDS011;64357;51.344;6.550;2022-12-20T16:55:18;12.27;;;3.65;;
75739;SDS011;64357;51.344;6.550;2022-12-20T16:57:45;12.18;;;2.90;;
75739;SDS011;64357;51.344;6.550;2022-12-20T17:00:21;7.03;;;3.00;;
75739;SDS011;64357;51.344;6.550;2022-12-20T17:02:48;8.57;;;2.95;;
75739;SDS011;64357;51.344;6.550;2022-12-20T17:07:57;10.52;;;3.78;;
75739;SDS011;64357;51.344;6.550;2022-12-20T17:10:23;10.43;;;2.63;;
75739;SDS011;64357;51.344;6.550;2022-12-20T17:12:49;8.05;;;2.92;;
75739;SDS011;64357;51.344;6.550;2022-12-20T17:15:20;10.32;;;3.53;;
75739;SDS011;64357;51.344;6.550;2022-12-20T17:17:46;10.98;;;3.30;;
75739;SDS011;64357;51.344;6.550;2022-12-20T17:20:12;11.52;;;4.28;;
75739;SDS011;64357;51.344;6.550;2022-12-20T17:22:41;7.97;;;2.75;;
75739;SDS011;64357;51.344;6.550;2022-12-20T17:25:16;11.85;;;3.80;;
75739;SDS011;64357;51.344;6.550;2022-12-20T17:27:43;15.95;;;4.65;;
75739;SDS011;64357;51.344;6.550;2022-12-20T17:30:09;13.63;;;3.83;;
75739;SDS011;64357;51.344;6.550;2022-12-20T17:32:34;9.63;;;4.28;;
75739;SDS011;64357;51.344;6.550;2022-12-20T17:35:00;8.77;;;3.37;;
75739;SDS011;64357;51.344;6.550;2022-12-20T17:37:25;10.43;;;3.23;;